Time;durP1;ratioP1;P1;durP2;ratioP2;P2;SDS_P1;SDS_P2;PMS_P1;PMS_P2;Temp;Humidity;BMP_temperature;BMP_pressure;BME280_temperature;BME280_humidity;BME280_pressure;Samples;Min_cycle;Max_cycle;Signal;HPM_P1;HPM_P2
2023/08/18 00:01:53;;;;;;;5.72;2.58;;;;;;;;;;4946704;28;99351;-81
2023/08/18 00:04:20;;;;;;;7.32;3.47;;;;;;;;;;4942161;28;100695;-82
2023/08/18 00:06:47;;;;;;;5.20;2.90;;;;;;;;;;4947734;28;98692;-83
2023/08/18 00:09:13;;;;;;;6.25;3.40;;;;;;;;;;4948967;28;99274;-83
2023/08/18 00:11:40;;;;;;;5.47;2.90;;;;;;;;;;4949715;28;99351;-83
2023/08/18 00:14:06;;;;;;;6.38;3.45;;;;;;;;;;4949230;28;99086;-81
2023/08/18 00:16:33;;;;;;;5.07;2.75;;;;;;;;;;4949848;28;99689;-83
2023/08/18 00:18:59;;;;;;;6.85;3.10;;;;;;;;;;4943408;28;99276;-83
2023/08/18 00:21:26;;;;;;;6.15;2.80;;;;;;;;;;4948970;28;98890;-83
2023/08/18 00:23:53;;;;;;;6.13;2.80;;;;;;;;;;4934487;28;100352;-82
2023/08/18 00:26:19;;;;;;;6.40;3.47;;;;;;;;;;4935363;28;97921;-83
2023/08/18 00:28:46;;;;;;;5.57;2.72;;;;;;;;;;4948732;28;99526;-81
2023/08/18 00:31:12;;;;;;;6.38;2.92;;;;;;;;;;4944638;28;99096;-82
2023/08/18 00:33:39;;;;;;;6.50;3.30;;;;;;;;;;4948715;28;99261;-82
2023/08/18 00:36:06;;;;;;;6.70;2.55;;;;;;;;;;4948981;28;99556;-82
2023/08/18 00:38:32;;;;;;;6.53;2.90;;;;;;;;;;4937070;28;100572;-81
2023/08/18 00:40:59;;;;;;;8.70;2.78;;;;;;;;;;4958731;28;99065;-82
2023/08/18 00:43:25;;;;;;;8.60;2.85;;;;;;;;;;4946721;28;102385;-81
2023/08/18 00:45:53;;;;;;;7.40;2.88;;;;;;;;;;4947961;28;98780;-82
2023/08/18 00:48:22;;;;;;;6.50;2.80;;;;;;;;;;4947129;28;98752;-82
2023/08/18 00:50:49;;;;;;;7.05;2.60;;;;;;;;;;4936632;28;98379;-81
2023/08/18 00:53:16;;;;;;;5.28;2.45;;;;;;;;;;4949184;28;98545;-81
2023/08/18 00:55:42;;;;;;;6.22;3.00;;;;;;;;;;4945251;28;98850;-81
2023/08/18 00:58:09;;;;;;;6.30;2.65;;;;;;;;;;4946801;28;101146;-82
2023/08/18 01:00:36;;;;;;;5.50;2.60;;;;;;;;;;4949132;28;99242;-82
2023/08/18 01:03:04;;;;;;;5.80;2.70;;;;;;;;;;4951228;28;100615;-82
2023/08/18 01:05:32;;;;;;;5.63;2.58;;;;;;;;;;4946648;28;98891;-82
2023/08/18 01:08:00;;;;;;;6.07;2.88;;;;;;;;;;4946828;28;100916;-82
2023/08/18 01:10:28;;;;;;;5.28;2.80;;;;;;;;;;4946484;28;102149;-81
2023/08/18 01:13:13;;;;;;;5.40;2.58;;;;;;;;;;4949427;28;98529;-81
2023/08/18 01:15:42;;;;;;;5.95;2.58;;;;;;;;;;4931288;28;101468;-81
2023/08/18 01:18:10;;;;;;;5.93;2.88;;;;;;;;;;4948138;28;99254;-82
2023/08/18 01:20:37;;;;;;;5.97;2.92;;;;;;;;;;4947986;28;100290;-81
2023/08/18 01:23:04;;;;;;;5.03;2.63;;;;;;;;;;4948112;28;99307;-82
2023/08/18 01:25:30;;;;;;;5.10;2.42;;;;;;;;;;4948515;28;99006;-82
2023/08/18 01:27:57;;;;;;;;;;;;;;;;;;4935132;28;98565;-82
2023/08/18 01:30:29;;;;;;;5.18;2.58;;;;;;;;;;4946049;28;101723;-83
2023/08/18 01:32:57;;;;;;;5.28;2.63;;;;;;;;;;4928916;28;98759;-83
2023/08/18 01:35:25;;;;;;;5.35;2.75;;;;;;;;;;4948901;28;99131;-82
2023/08/18 01:37:53;;;;;;;6.07;2.60;;;;;;;;;;4946913;28;100510;-82
2023/08/18 01:40:23;;;;;;;5.80;2.92;;;;;;;;;;4950724;28;97903;-82
2023/08/18 01:42:51;;;;;;;5.53;2.75;;;;;;;;;;4946864;28;101823;-82
2023/08/18 01:45:18;;;;;;;5.20;2.72;;;;;;;;;;4950947;28;99344;-82
2023/08/18 01:47:44;;;;;;;5.10;2.15;;;;;;;;;;4934178;28;99216;-82
2023/08/18 01:50:11;;;;;;;5.53;2.28;;;;;;;;;;4947438;28;99191;-81
2023/08/18 01:52:38;;;;;;;4.35;2.30;;;;;;;;;;4946355;28;98602;-82
2023/08/18 01:55:04;;;;;;;6.20;2.50;;;;;;;;;;4934593;28;99110;-83
2023/08/18 01:57:31;;;;;;;4.93;2.40;;;;;;;;;;4946744;28;102327;-82
2023/08/18 01:59:58;;;;;;;5.57;2.30;;;;;;;;;;4948166;28;98751;-83
2023/08/18 02:02:24;;;;;;;4.57;2.40;;;;;;;;;;4948139;28;100148;-83
2023/08/18 02:04:51;;;;;;;4.63;2.60;;;;;;;;;;4948524;28;98787;-81
2023/08/18 02:07:17;;;;;;;6.75;2.17;;;;;;;;;;4949911;28;99085;-81
2023/08/18 02:09:44;;;;;;;7.63;2.40;;;;;;;;;;4947713;28;99284;-82
2023/08/18 02:12:11;;;;;;;5.05;2.45;;;;;;;;;;4943972;28;99971;-82
2023/08/18 02:14:37;;;;;;;5.85;2.50;;;;;;;;;;4948759;28;99608;-82
2023/08/18 02:17:04;;;;;;;5.03;2.33;;;;;;;;;;4947115;28;98572;-81
2023/08/18 02:19:30;;;;;;;4.93;2.28;;;;;;;;;;4946175;28;98668;-82
2023/08/18 02:21:57;;;;;;;4.20;2.22;;;;;;;;;;4950490;28;99082;-81
2023/08/18 02:24:25;;;;;;;4.47;2.33;;;;;;;;;;4953059;28;100705;-81
2023/08/18 02:26:51;;;;;;;7.05;3.30;;;;;;;;;;4953456;28;98470;-83
2023/08/18 02:29:18;;;;;;;3.95;2.22;;;;;;;;;;4955453;28;101816;-81
2023/08/18 02:31:46;;;;;;;5.30;2.47;;;;;;;;;;4953757;28;98892;-81
2023/08/18 02:34:13;;;;;;;3.67;2.10;;;;;;;;;;4953264;28;98928;-82
2023/08/18 02:36:40;;;;;;;4.93;2.25;;;;;;;;;;4948354;28;101668;-81
2023/08/18 02:39:06;;;;;;;5.53;2.83;;;;;;;;;;4948232;28;99088;-82
2023/08/18 02:41:33;;;;;;;3.75;2.10;;;;;;;;;;4950145;28;98528;-82
2023/08/18 02:43:59;;;;;;;7.38;2.20;;;;;;;;;;4948776;28;100551;-82
2023/08/18 02:46:26;;;;;;;5.57;2.10;;;;;;;;;;4945982;28;98446;-81
2023/08/18 02:48:53;;;;;;;4.03;2.00;;;;;;;;;;4936735;28;101678;-82
2023/08/18 02:51:19;;;;;;;4.22;1.95;;;;;;;;;;4950963;28;99242;-82
2023/08/18 02:53:48;;;;;;;4.10;2.03;;;;;;;;;;4946781;28;100056;-83
2023/08/18 02:56:16;;;;;;;5.82;2.00;;;;;;;;;;4946223;28;101837;-82
2023/08/18 02:58:42;;;;;;;5.03;2.40;;;;;;;;;;4950963;28;99138;-82
2023/08/18 03:01:09;;;;;;;4.25;1.92;;;;;;;;;;4951892;28;101778;-82
2023/08/18 03:03:36;;;;;;;6.43;2.63;;;;;;;;;;4953817;28;99176;-82
2023/08/18 03:06:04;;;;;;;4.57;2.38;;;;;;;;;;4941303;28;98656;-82
2023/08/18 03:08:30;;;;;;;6.47;2.80;;;;;;;;;;4951058;28;98585;-81
2023/08/18 03:10:58;;;;;;;4.00;2.08;;;;;;;;;;4953887;28;102832;-81
2023/08/18 03:13:24;;;;;;;;;;;;;;;;;;4964617;28;98616;-83
2023/08/18 03:15:51;;;;;;;3.45;2.00;;;;;;;;;;4960096;28;120104;-81
2023/08/18 03:18:17;;;;;;;5.95;2.35;;;;;;;;;;4958560;28;98360;-79
2023/08/18 03:20:47;;;;;;;5.18;2.22;;;;;;;;;;4955332;28;99452;-81
2023/08/18 03:23:14;;;;;;;3.95;2.15;;;;;;;;;;4953222;28;102081;-79
2023/08/18 03:25:42;;;;;;;4.05;2.15;;;;;;;;;;4933586;28;99607;-81
2023/08/18 03:28:10;;;;;;;4.55;2.10;;;;;;;;;;4949049;28;102213;-80
2023/08/18 03:30:37;;;;;;;4.68;2.03;;;;;;;;;;4948923;28;101614;-82
2023/08/18 03:33:05;;;;;;;4.10;2.10;;;;;;;;;;4956429;28;98759;-79
2023/08/18 03:35:32;;;;;;;4.63;2.25;;;;;;;;;;4951374;28;101581;-79
2023/08/18 03:37:59;;;;;;;6.95;2.75;;;;;;;;;;4950799;28;98573;-79
2023/08/18 03:40:25;;;;;;;6.63;2.95;;;;;;;;;;4953294;28;98931;-80
2023/08/18 03:42:52;;;;;;;4.38;2.20;;;;;;;;;;4953492;28;98333;-80
2023/08/18 03:45:21;;;;;;;4.82;2.15;;;;;;;;;;4953624;28;98509;-80
2023/08/18 03:47:47;;;;;;;4.03;1.90;;;;;;;;;;4954856;28;99861;-80
2023/08/18 03:50:14;;;;;;;5.32;2.80;;;;;;;;;;4948938;28;100774;-81
2023/08/18 03:52:41;;;;;;;7.93;2.78;;;;;;;;;;4946398;28;98924;-81
2023/08/18 03:55:09;;;;;;;6.45;2.55;;;;;;;;;;4955812;28;100499;-81
2023/08/18 03:57:36;;;;;;;6.50;2.70;;;;;;;;;;4943241;28;99013;-81
2023/08/18 04:00:03;;;;;;;6.93;3.10;;;;;;;;;;4951348;28;99237;-80
2023/08/18 04:02:39;;;;;;;5.95;2.65;;;;;;;;;;4940591;28;98935;-81
2023/08/18 04:05:09;;;;;;;7.68;3.08;;;;;;;;;;4949703;28;98508;-80
2023/08/18 04:07:35;;;;;;;7.80;4.05;;;;;;;;;;4951984;28;101491;-81
2023/08/18 04:10:03;;;;;;;5.82;2.70;;;;;;;;;;4951368;28;100300;-81
2023/08/18 04:12:30;;;;;;;5.50;2.58;;;;;;;;;;4935864;28;98557;-81
2023/08/18 04:14:57;;;;;;;9.60;2.70;;;;;;;;;;4952487;28;99302;-81
2023/08/18 04:17:24;;;;;;;6.22;2.60;;;;;;;;;;4954574;28;100285;-80
2023/08/18 04:19:52;;;;;;;5.97;2.47;;;;;;;;;;4951469;28;98887;-79
2023/08/18 04:22:20;;;;;;;5.90;2.78;;;;;;;;;;4950194;28;101502;-80
2023/08/18 04:24:47;;;;;;;7.43;3.00;;;;;;;;;;4951631;28;98806;-81
2023/08/18 04:27:14;;;;;;;6.70;2.72;;;;;;;;;;4951457;28;100013;-81
2023/08/18 04:29:40;;;;;;;6.65;3.28;;;;;;;;;;4951394;28;100274;-81
2023/08/18 04:32:07;;;;;;;7.07;3.33;;;;;;;;;;4952474;28;97839;-81
2023/08/18 04:34:33;;;;;;;7.80;2.80;;;;;;;;;;4950876;28;100743;-80
2023/08/18 04:37:02;;;;;;;6.35;2.90;;;;;;;;;;4950265;28;102344;-81
2023/08/18 04:39:30;;;;;;;6.00;2.90;;;;;;;;;;4952182;28;99595;-80
2023/08/18 04:41:57;;;;;;;9.30;3.97;;;;;;;;;;4930593;28;101746;-80
2023/08/18 04:44:26;;;;;;;5.30;2.65;;;;;;;;;;4947207;28;98620;-81
2023/08/18 04:46:52;;;;;;;6.32;3.05;;;;;;;;;;4947696;28;99936;-81
2023/08/18 04:49:22;;;;;;;8.80;3.65;;;;;;;;;;4941678;28;101102;-82
2023/08/18 04:51:49;;;;;;;7.43;3.65;;;;;;;;;;4946393;28;99083;-81
2023/08/18 04:54:17;;;;;;;9.32;3.88;;;;;;;;;;4946917;28;101523;-80
2023/08/18 04:56:43;;;;;;;7.40;3.30;;;;;;;;;;4946872;28;98375;-81
2023/08/18 04:59:10;;;;;;;8.30;3.97;;;;;;;;;;4946632;28;98535;-81
2023/08/18 05:01:37;;;;;;;6.95;3.40;;;;;;;;;;4935826;28;101221;-81
2023/08/18 05:04:04;;;;;;;6.82;3.20;;;;;;;;;;4946459;28;99321;-81
2023/08/18 05:06:30;;;;;;;6.90;3.20;;;;;;;;;;4948824;28;100046;-81
2023/08/18 05:08:57;;;;;;;6.40;3.15;;;;;;;;;;4948071;28;98521;-81
2023/08/18 05:11:24;;;;;;;7.70;3.58;;;;;;;;;;4937978;28;99391;-81
2023/08/18 05:13:50;;;;;;;8.90;3.40;;;;;;;;;;4944070;28;98818;-81
2023/08/18 05:16:17;;;;;;;8.18;3.70;;;;;;;;;;4962274;28;99974;-81
2023/08/18 05:18:44;;;;;;;8.63;4.15;;;;;;;;;;4948108;28;98482;-81
2023/08/18 05:21:10;;;;;;;8.55;3.30;;;;;;;;;;4946622;28;98849;-81
2023/08/18 05:23:37;;;;;;;7.13;3.45;;;;;;;;;;4951936;28;99134;-85
2023/08/18 05:26:03;;;;;;;7.68;3.83;;;;;;;;;;4934805;28;99077;-85
2023/08/18 05:28:32;;;;;;;7.38;3.20;;;;;;;;;;4938223;28;99865;-85
2023/08/18 05:30:59;;;;;;;8.80;3.70;;;;;;;;;;4931451;28;98732;-84
2023/08/18 05:33:26;;;;;;;18.20;3.40;;;;;;;;;;4948326;28;99069;-86
2023/08/18 05:35:56;;;;;;;5.72;2.47;;;;;;;;;;4947864;28;99240;-87
2023/08/18 05:38:22;;;;;;;7.68;3.28;;;;;;;;;;4945826;28;98490;-87
2023/08/18 05:40:49;;;;;;;6.55;3.08;;;;;;;;;;4933750;28;101645;-87
2023/08/18 05:43:18;;;;;;;6.45;2.80;;;;;;;;;;4945419;28;98481;-88
2023/08/18 05:45:46;;;;;;;6.35;2.90;;;;;;;;;;4940908;28;99140;-87
2023/08/18 05:48:13;;;;;;;7.28;3.08;;;;;;;;;;4932947;28;99294;-85
2023/08/18 05:50:40;;;;;;;6.15;2.90;;;;;;;;;;4948321;28;98479;-87
2023/08/18 05:53:07;;;;;;;6.72;2.80;;;;;;;;;;4947382;28;99844;-83
2023/08/18 05:55:33;;;;;;;7.22;2.95;;;;;;;;;;4946407;28;100382;-84
2023/08/18 05:58:03;;;;;;;10.68;3.08;;;;;;;;;;4934823;28;98547;-85
2023/08/18 06:00:30;;;;;;;6.80;3.20;;;;;;;;;;4949946;28;98995;-85
2023/08/18 06:02:57;;;;;;;5.53;2.58;;;;;;;;;;4950033;28;99076;-85
2023/08/18 06:05:27;;;;;;;6.35;2.83;;;;;;;;;;4952560;28;98599;-84
2023/08/18 06:07:54;;;;;;;5.40;3.17;;;;;;;;;;4944892;28;99239;-84
2023/08/18 06:10:20;;;;;;;9.05;3.22;;;;;;;;;;4947005;28;98404;-84
2023/08/18 06:12:48;;;;;;;6.68;3.20;;;;;;;;;;4947048;28;98903;-83
2023/08/18 06:15:15;;;;;;;8.18;3.30;;;;;;;;;;4947384;28;100218;-83
2023/08/18 06:17:41;;;;;;;;;;;;;;;;;;4947622;28;99337;-83
2023/08/18 06:20:08;;;;;;;6.78;3.03;;;;;;;;;;4949674;28;99605;-84
2023/08/18 06:22:35;;;;;;;7.40;3.28;;;;;;;;;;4946116;28;99278;-84
2023/08/18 06:25:02;;;;;;;8.75;3.10;;;;;;;;;;4947915;28;98493;-84
2023/08/18 06:27:29;;;;;;;6.78;3.55;;;;;;;;;;4951164;28;99049;-84
2023/08/18 06:29:55;;;;;;;5.50;2.83;;;;;;;;;;4946024;28;98927;-85
2023/08/18 06:32:22;;;;;;;7.40;3.10;;;;;;;;;;4949253;28;99400;-86
2023/08/18 06:34:50;;;;;;;6.93;3.25;;;;;;;;;;4944484;28;98559;-85
2023/08/18 06:37:17;;;;;;;8.23;3.10;;;;;;;;;;4943996;28;98577;-86
2023/08/18 06:39:44;;;;;;;10.25;3.20;;;;;;;;;;4952416;28;98971;-85
2023/08/18 06:42:14;;;;;;;7.75;3.20;;;;;;;;;;4954970;28;100052;-84
2023/08/18 06:44:40;;;;;;;8.63;3.42;;;;;;;;;;4961765;28;98455;-85
2023/08/18 06:47:07;;;;;;;6.93;3.50;;;;;;;;;;4949514;28;99323;-86
2023/08/18 06:49:33;;;;;;;6.68;2.85;;;;;;;;;;4954373;28;99765;-85
2023/08/18 06:52:00;;;;;;;9.45;3.40;;;;;;;;;;4950073;28;98870;-85
2023/08/18 06:54:27;;;;;;;5.85;3.05;;;;;;;;;;4934264;28;99111;-86
2023/08/18 06:56:53;;;;;;;5.78;2.90;;;;;;;;;;4945688;28;99471;-84
2023/08/18 06:59:20;;;;;;;6.13;2.78;;;;;;;;;;4934468;28;99396;-85
2023/08/18 07:01:46;;;;;;;6.53;3.10;;;;;;;;;;4934751;28;100250;-85
2023/08/18 07:04:13;;;;;;;6.55;2.80;;;;;;;;;;4930923;28;98582;-83
2023/08/18 07:06:42;;;;;;;5.63;2.72;;;;;;;;;;4931193;28;100303;-83
2023/08/18 07:09:09;;;;;;;7.05;3.00;;;;;;;;;;4946660;28;99202;-85
2023/08/18 07:11:36;;;;;;;6.25;2.90;;;;;;;;;;4950555;28;98541;-85
2023/08/18 07:14:03;;;;;;;6.43;2.90;;;;;;;;;;4947103;28;99725;-83
2023/08/18 07:16:30;;;;;;;6.07;2.60;;;;;;;;;;4946912;28;98559;-84
2023/08/18 07:18:57;;;;;;;5.40;2.70;;;;;;;;;;4951056;28;98781;-84
2023/08/18 07:21:23;;;;;;;6.03;2.97;;;;;;;;;;4947065;28;98854;-83
2023/08/18 07:23:50;;;;;;;5.55;2.47;;;;;;;;;;4941865;28;97836;-84
2023/08/18 07:26:17;;;;;;;7.05;2.90;;;;;;;;;;4961577;28;99267;-83
2023/08/18 07:28:43;;;;;;;15.27;9.00;;;;;;;;;;4944634;28;102578;-86
2023/08/18 07:31:10;;;;;;;13.20;7.32;;;;;;;;;;4938593;28;99543;-85
2023/08/18 07:33:36;;;;;;;12.82;6.82;;;;;;;;;;4949596;28;99518;-84
2023/08/18 07:36:03;;;;;;;15.75;9.20;;;;;;;;;;4946504;28;98588;-84
2023/08/18 07:38:32;;;;;;;10.95;4.80;;;;;;;;;;4941119;28;98740;-83
2023/08/18 07:40:59;;;;;;;11.70;5.25;;;;;;;;;;4929245;28;99254;-84
2023/08/18 07:43:26;;;;;;;11.25;6.22;;;;;;;;;;4933764;28;98684;-84
2023/08/18 07:45:52;;;;;;;9.60;5.63;;;;;;;;;;4935242;28;100136;-84
2023/08/18 07:48:19;;;;;;;13.05;7.15;;;;;;;;;;4946942;28;100191;-84
2023/08/18 07:50:46;;;;;;;11.25;6.30;;;;;;;;;;4931580;28;98520;-85
2023/08/18 07:53:12;;;;;;;10.73;5.65;;;;;;;;;;4939003;28;99133;-86
2023/08/18 07:55:39;;;;;;;14.27;6.65;;;;;;;;;;4945982;28;99242;-86
2023/08/18 07:58:05;;;;;;;17.02;9.38;;;;;;;;;;4947309;28;99942;-85
2023/08/18 08:00:32;;;;;;;15.57;7.30;;;;;;;;;;4945791;28;99620;-87
2023/08/18 08:02:59;;;;;;;17.17;9.57;;;;;;;;;;4947077;28;98576;-85
2023/08/18 08:05:26;;;;;;;17.60;8.70;;;;;;;;;;4946902;28;98809;-85
2023/08/18 08:07:53;;;;;;;18.52;11.10;;;;;;;;;;4941989;28;99886;-87
2023/08/18 08:10:23;;;;;;;15.55;9.02;;;;;;;;;;4953446;28;98610;-87
2023/08/18 08:12:49;;;;;;;18.75;10.27;;;;;;;;;;4951395;28;99055;-86
2023/08/18 08:15:17;;;;;;;14.57;7.18;;;;;;;;;;4949127;28;99147;-86
2023/08/18 08:17:44;;;;;;;;;;;;;;;;;;4945758;28;99215;-85
2023/08/18 08:20:15;;;;;;;9.25;4.80;;;;;;;;;;4948477;28;120397;-87
2023/08/18 08:22:43;;;;;;;11.75;5.57;;;;;;;;;;4939569;28;99149;-85
2023/08/18 08:25:10;;;;;;;10.65;5.22;;;;;;;;;;4936582;28;100510;-86
2023/08/18 08:27:37;;;;;;;9.82;5.07;;;;;;;;;;4946714;28;99105;-86
2023/08/18 08:30:04;;;;;;;10.40;5.20;;;;;;;;;;4947420;28;99006;-88
2023/08/18 08:32:31;;;;;;;;;;;;;;;;;;4939281;28;99115;-86
2023/08/18 08:34:57;;;;;;;12.95;6.35;;;;;;;;;;4949774;28;99024;-85
2023/08/18 08:37:24;;;;;;;13.60;6.15;;;;;;;;;;4944481;28;99702;-86
2023/08/18 08:39:51;;;;;;;11.00;5.60;;;;;;;;;;4946307;28;99358;-85
2023/08/18 08:42:17;;;;;;;12.23;6.03;;;;;;;;;;4949493;28;98580;-84
2023/08/18 08:44:44;;;;;;;12.48;6.18;;;;;;;;;;4934565;28;99412;-85
2023/08/18 08:47:11;;;;;;;11.70;5.72;;;;;;;;;;4948544;28;100742;-87
2023/08/18 08:49:44;;;;;;;16.00;8.35;;;;;;;;;;4930699;28;98558;-81
2023/08/18 08:52:13;;;;;;;14.13;6.10;;;;;;;;;;4942105;28;98844;-82
2023/08/18 08:54:46;;;;;;;16.80;8.45;;;;;;;;;;4949684;28;98540;-84
2023/08/18 08:57:13;;;;;;;12.10;6.25;;;;;;;;;;4950222;28;98561;-84
2023/08/18 08:59:40;;;;;;;;;;;;;;;;;;4953094;28;98866;-84
2023/08/18 09:02:06;;;;;;;16.52;8.18;;;;;;;;;;4938121;28;103071;-80
2023/08/18 09:04:33;;;;;;;12.75;6.05;;;;;;;;;;4934058;28;99240;-83
2023/08/18 09:06:59;;;;;;;15.65;8.13;;;;;;;;;;4934673;28;99772;-84
2023/08/18 09:09:26;;;;;;;13.60;6.65;;;;;;;;;;4920622;28;101627;-84
2023/08/18 09:11:57;;;;;;;14.05;6.55;;;;;;;;;;4930069;28;100649;-83
2023/08/18 09:14:23;;;;;;;18.48;9.00;;;;;;;;;;4928291;28;100401;-83
2023/08/18 09:16:50;;;;;;;15.25;7.93;;;;;;;;;;4936408;28;98662;-81
2023/08/18 09:19:17;;;;;;;13.38;6.30;;;;;;;;;;4939682;28;98869;-82
2023/08/18 09:21:44;;;;;;;11.52;5.20;;;;;;;;;;4939876;28;98960;-83
2023/08/18 09:24:13;;;;;;;16.02;7.13;;;;;;;;;;4929367;28;99357;-82
2023/08/18 09:26:40;;;;;;;16.52;8.65;;;;;;;;;;4927172;28;99186;-82
2023/08/18 09:29:11;;;;;;;14.98;8.73;;;;;;;;;;4926107;28;99418;-83
2023/08/18 09:31:37;;;;;;;21.05;10.10;;;;;;;;;;4927902;28;99058;-82
2023/08/18 09:34:04;;;;;;;18.17;9.80;;;;;;;;;;4930293;28;99982;-83
2023/08/18 09:36:31;;;;;;;12.73;6.40;;;;;;;;;;4937093;28;99444;-82
2023/08/18 09:39:02;;;;;;;14.02;7.78;;;;;;;;;;4934830;28;99877;-82
2023/08/18 09:41:29;;;;;;;16.83;8.77;;;;;;;;;;4943494;28;99583;-84
2023/08/18 09:43:55;;;;;;;16.85;9.95;;;;;;;;;;4940899;28;98985;-82
2023/08/18 09:46:25;;;;;;;16.50;8.80;;;;;;;;;;4948707;28;99217;-82
2023/08/18 09:48:52;;;;;;;14.02;6.65;;;;;;;;;;4941911;28;99150;-82
2023/08/18 09:51:20;;;;;;;14.57;7.90;;;;;;;;;;4946202;28;100377;-81
2023/08/18 09:53:56;;;;;;;15.50;8.20;;;;;;;;;;4933617;28;100237;-83
2023/08/18 09:56:25;;;;;;;10.57;5.20;;;;;;;;;;4929382;28;98574;-83
2023/08/18 09:58:56;;;;;;;13.45;7.45;;;;;;;;;;4942533;28;99314;-82
2023/08/18 10:01:25;;;;;;;15.07;7.80;;;;;;;;;;4934112;28;99162;-86
2023/08/18 10:03:53;;;;;;;14.05;7.63;;;;;;;;;;4943432;28;98594;-84
2023/08/18 10:06:20;;;;;;;11.68;5.47;;;;;;;;;;4934667;28;99152;-82
2023/08/18 10:08:46;;;;;;;15.88;7.78;;;;;;;;;;4926466;28;98647;-83
2023/08/18 10:11:14;;;;;;;11.20;5.50;;;;;;;;;;4928816;28;99039;-83
2023/08/18 10:13:41;;;;;;;11.07;4.85;;;;;;;;;;4926072;28;99074;-83
2023/08/18 10:16:07;;;;;;;15.13;8.70;;;;;;;;;;4940204;28;97873;-82
2023/08/18 10:18:34;;;;;;;16.50;9.18;;;;;;;;;;4929420;28;99082;-84
2023/08/18 10:21:01;;;;;;;18.50;10.32;;;;;;;;;;4949239;28;98561;-82
2023/08/18 10:23:28;;;;;;;16.27;9.90;;;;;;;;;;4945067;28;99867;-83
2023/08/18 10:25:55;;;;;;;16.60;8.25;;;;;;;;;;4953566;28;100221;-82
2023/08/18 10:28:28;;;;;;;16.13;8.98;;;;;;;;;;4953864;28;98749;-83
2023/08/18 10:31:05;;;;;;;13.10;7.47;;;;;;;;;;4947283;28;99410;-83
2023/08/18 10:33:32;;;;;;;15.68;9.18;;;;;;;;;;4940347;28;99033;-82
2023/08/18 10:36:01;;;;;;;10.68;5.60;;;;;;;;;;4949282;28;98919;-82
2023/08/18 10:38:29;;;;;;;11.70;5.47;;;;;;;;;;4945702;28;101887;-82
2023/08/18 10:40:56;;;;;;;9.55;4.80;;;;;;;;;;4940001;28;98175;-78
2023/08/18 10:43:26;;;;;;;11.43;6.32;;;;;;;;;;4946282;28;98551;-80
2023/08/18 10:45:59;;;;;;;15.20;7.70;;;;;;;;;;4950986;28;99107;-80
2023/08/18 10:48:32;;;;;;;17.23;9.13;;;;;;;;;;4944790;28;100035;-79
2023/08/18 10:51:00;;;;;;;19.58;9.75;;;;;;;;;;4940011;28;98650;-78
2023/08/18 10:53:32;;;;;;;14.80;7.88;;;;;;;;;;4951420;28;99556;-80
2023/08/18 10:55:59;;;;;;;12.90;6.93;;;;;;;;;;4935832;28;99819;-79
2023/08/18 10:58:26;;;;;;;9.38;4.90;;;;;;;;;;4931875;28;100428;-80
2023/08/18 11:00:52;;;;;;;14.68;8.23;;;;;;;;;;4933262;28;99008;-79
2023/08/18 11:03:19;;;;;;;10.35;5.13;;;;;;;;;;4937244;28;98879;-79
2023/08/18 11:05:46;;;;;;;14.75;8.65;;;;;;;;;;4936850;28;98461;-79
2023/08/18 11:08:13;;;;;;;10.38;5.10;;;;;;;;;;4933856;28;98704;-79
2023/08/18 11:10:40;;;;;;;14.35;8.10;;;;;;;;;;4936539;28;98627;-78
2023/08/18 11:13:09;;;;;;;15.18;8.27;;;;;;;;;;4931250;28;100633;-78
2023/08/18 11:15:36;;;;;;;13.85;7.75;;;;;;;;;;4932367;28;99292;-79
2023/08/18 11:18:03;;;;;;;9.68;5.65;;;;;;;;;;4930429;28;100640;-78
2023/08/18 11:20:30;;;;;;;19.25;9.75;;;;;;;;;;4930014;28;99235;-79
2023/08/18 11:22:57;;;;;;;11.68;6.45;;;;;;;;;;4931223;28;98547;-79
2023/08/18 11:25:24;;;;;;;13.52;9.25;;;;;;;;;;4928562;28;100250;-79
2023/08/18 11:27:52;;;;;;;15.23;8.90;;;;;;;;;;4926446;28;99164;-81
2023/08/18 11:30:20;;;;;;;12.68;7.65;;;;;;;;;;4936840;28;98286;-81
2023/08/18 11:32:49;;;;;;;9.52;4.82;;;;;;;;;;4939495;28;99826;-81
2023/08/18 11:35:16;;;;;;;;;;;;;;;;;;4928588;28;98978;-80
2023/08/18 11:37:44;;;;;;;10.38;5.68;;;;;;;;;;4929005;28;117516;-80
2023/08/18 11:40:15;;;;;;;11.50;7.75;;;;;;;;;;4926873;28;99873;-80
2023/08/18 11:42:42;;;;;;;9.85;5.85;;;;;;;;;;4922371;28;98810;-79
2023/08/18 11:45:15;;;;;;;11.15;5.80;;;;;;;;;;4934611;28;99394;-79
2023/08/18 11:47:42;;;;;;;9.68;4.50;;;;;;;;;;4933735;28;99424;-79
2023/08/18 11:50:09;;;;;;;7.35;3.90;;;;;;;;;;4926061;28;99908;-79
2023/08/18 11:52:43;;;;;;;7.32;3.78;;;;;;;;;;4931016;28;99050;-79
2023/08/18 11:55:10;;;;;;;6.47;3.35;;;;;;;;;;4920845;28;98195;-78
2023/08/18 11:57:40;;;;;;;;;;;;;;;;;;4931838;28;99432;-79
2023/08/18 12:00:17;;;;;;;8.10;3.70;;;;;;;;;;4930601;28;99285;-80
2023/08/18 12:02:44;;;;;;;7.15;3.90;;;;;;;;;;4929365;28;100047;-80
2023/08/18 12:05:21;;;;;;;11.23;7.28;;;;;;;;;;4928044;28;99612;-80
2023/08/18 12:07:51;;;;;;;13.38;8.05;;;;;;;;;;4928495;28;99698;-80
2023/08/18 12:10:21;;;;;;;12.98;6.00;;;;;;;;;;4925289;28;98611;-81
2023/08/18 12:12:56;;;;;;;8.05;4.57;;;;;;;;;;4917047;28;102339;-80
2023/08/18 12:15:25;;;;;;;6.93;3.80;;;;;;;;;;4940965;28;99322;-80
2023/08/18 12:17:52;;;;;;;10.65;6.70;;;;;;;;;;4934794;28;98924;-80
2023/08/18 12:20:19;;;;;;;11.15;6.75;;;;;;;;;;4929792;28;98521;-80
2023/08/18 12:22:47;;;;;;;9.20;5.13;;;;;;;;;;4941764;28;98947;-79
2023/08/18 12:25:14;;;;;;;9.23;5.20;;;;;;;;;;4912704;28;100251;-81
2023/08/18 12:27:43;;;;;;;8.02;4.53;;;;;;;;;;4941008;28;100295;-81
2023/08/18 12:30:10;;;;;;;8.02;4.13;;;;;;;;;;4933578;28;98916;-80
2023/08/18 12:32:38;;;;;;;8.00;4.90;;;;;;;;;;4929273;28;99175;-79
2023/08/18 12:35:04;;;;;;;9.23;6.50;;;;;;;;;;4920872;28;100510;-79
2023/08/18 12:37:31;;;;;;;10.38;6.78;;;;;;;;;;4930644;28;98942;-80
2023/08/18 12:39:57;;;;;;;8.35;5.20;;;;;;;;;;4924555;28;100420;-79
2023/08/18 12:42:24;;;;;;;10.63;6.32;;;;;;;;;;4932823;28;98893;-80
2023/08/18 12:44:51;;;;;;;8.40;3.95;;;;;;;;;;4933285;28;98975;-80
2023/08/18 12:47:18;;;;;;;11.35;6.00;;;;;;;;;;4938120;28;99207;-79
2023/08/18 12:49:45;;;;;;;8.70;5.63;;;;;;;;;;4939039;28;98647;-79
2023/08/18 12:52:13;;;;;;;7.78;4.28;;;;;;;;;;4922720;28;99797;-77
2023/08/18 12:54:40;;;;;;;6.97;3.97;;;;;;;;;;4929382;28;99198;-80
2023/08/18 12:57:07;;;;;;;6.07;3.22;;;;;;;;;;4933768;28;99145;-81
2023/08/18 12:59:34;;;;;;;7.53;4.45;;;;;;;;;;4939400;28;98470;-80
2023/08/18 13:02:01;;;;;;;7.45;4.05;;;;;;;;;;4935529;28;98624;-81
2023/08/18 13:04:27;;;;;;;12.48;7.07;;;;;;;;;;4935388;28;99408;-81
2023/08/18 13:06:54;;;;;;;6.85;4.03;;;;;;;;;;4929771;28;99355;-80
2023/08/18 13:09:21;;;;;;;6.90;3.47;;;;;;;;;;4933178;28;98560;-81
2023/08/18 13:11:48;;;;;;;9.82;6.07;;;;;;;;;;4934819;28;100304;-81
2023/08/18 13:14:14;;;;;;;8.43;4.13;;;;;;;;;;4926029;28;99846;-80
2023/08/18 13:16:41;;;;;;;11.63;6.60;;;;;;;;;;4927493;28;99685;-81
2023/08/18 13:19:12;;;;;;;9.20;5.05;;;;;;;;;;4930229;28;99632;-82
2023/08/18 13:21:38;;;;;;;9.35;5.18;;;;;;;;;;4931626;28;99600;-81
2023/08/18 13:24:05;;;;;;;9.95;5.20;;;;;;;;;;4927855;28;99192;-81
2023/08/18 13:26:32;;;;;;;9.35;6.18;;;;;;;;;;4932149;28;99132;-80
2023/08/18 13:28:59;;;;;;;6.97;4.32;;;;;;;;;;4937569;28;98816;-79
2023/08/18 13:31:25;;;;;;;9.63;5.22;;;;;;;;;;4932178;28;99205;-80
2023/08/18 13:33:52;;;;;;;11.20;6.07;;;;;;;;;;4926279;28;98383;-80
2023/08/18 13:36:19;;;;;;;9.63;6.05;;;;;;;;;;4932133;28;98858;-79
2023/08/18 13:38:45;;;;;;;8.73;4.80;;;;;;;;;;4932962;28;99469;-79
2023/08/18 13:41:12;;;;;;;10.98;6.40;;;;;;;;;;4926246;28;99955;-79
2023/08/18 13:43:38;;;;;;;11.10;6.55;;;;;;;;;;4934926;28;100038;-80
2023/08/18 13:46:05;;;;;;;10.25;5.70;;;;;;;;;;4946675;28;99158;-80
2023/08/18 13:48:31;;;;;;;9.43;6.10;;;;;;;;;;4931751;28;98860;-80
2023/08/18 13:50:58;;;;;;;9.82;6.78;;;;;;;;;;4933084;28;99395;-80
2023/08/18 13:53:26;;;;;;;8.60;5.00;;;;;;;;;;4938069;28;100336;-79
2023/08/18 13:55:53;;;;;;;7.25;4.60;;;;;;;;;;4924968;28;98954;-80
2023/08/18 13:58:19;;;;;;;7.45;4.65;;;;;;;;;;4927824;28;99777;-80
2023/08/18 14:00:46;;;;;;;7.40;4.63;;;;;;;;;;4931416;28;98523;-79
2023/08/18 14:03:13;;;;;;;9.15;6.63;;;;;;;;;;4937085;28;98777;-79
2023/08/18 14:05:43;;;;;;;9.23;5.05;;;;;;;;;;4926970;28;101732;-82
2023/08/18 14:08:09;;;;;;;7.78;4.70;;;;;;;;;;4934286;28;99527;-79
2023/08/18 14:10:37;;;;;;;8.27;5.10;;;;;;;;;;4929791;28;98889;-80
2023/08/18 14:13:03;;;;;;;9.00;5.85;;;;;;;;;;4927868;28;99711;-80
2023/08/18 14:15:30;;;;;;;7.63;4.65;;;;;;;;;;4941444;28;98613;-79
2023/08/18 14:17:56;;;;;;;7.38;4.25;;;;;;;;;;4940339;28;98870;-79
2023/08/18 14:20:23;;;;;;;9.23;5.72;;;;;;;;;;4927347;28;99917;-81
2023/08/18 14:22:50;;;;;;;9.48;5.95;;;;;;;;;;4926646;28;99086;-81
2023/08/18 14:25:21;;;;;;;8.45;4.88;;;;;;;;;;4930559;28;98568;-82
2023/08/18 14:27:48;;;;;;;7.90;4.88;;;;;;;;;;4938874;28;98618;-79
2023/08/18 14:30:15;;;;;;;8.68;6.13;;;;;;;;;;4923399;28;99577;-81
2023/08/18 14:32:41;;;;;;;9.52;6.45;;;;;;;;;;4929610;28;99364;-81
2023/08/18 14:35:08;;;;;;;7.18;3.97;;;;;;;;;;4932079;28;98557;-79
2023/08/18 14:37:38;;;;;;;8.93;4.35;;;;;;;;;;4931664;28;100448;-79
2023/08/18 14:40:09;;;;;;;9.25;4.40;;;;;;;;;;4926915;28;99489;-79